Startpagina
METAR-TAF:

METAR-TAF

Vliegvelden :

Moroni, Comoren

Luchthaven Prins Said Ibrahim

breedte: 11-32S, lengte: 043-16E, hoogte: 29 m

Actueel weer

Dit bericht is 10 minuten geleden gemaakt, om 03:00 UTC
Wind 3 kt uit het oosten
Temperatuur 20°C
Vochtigheid 94%
Druk 1013 hPa
Zicht 10 km of meer
Weinig wolken op 1800 ft

METAR: FMCH 240300Z 10003KT 9999 FEW018 20/19 Q1013 NOSIG

Tijdstip: 06:10 (03:10 UTC)

Verwachting

Dit bericht is 10 uur en het 10 minuten geleden gemaakt, om 17:00 UTC
Verwachting geldig van 23 om 18 UTC tot 24 om 24 UTC
Wind 3 kt uit het oostzuidoosten
Zicht 10 km of meer
Weinig wolken op 2000 ft
Wijzigt naar
van 24 om 05 UTC tot 24 om 07 UTC
Wind 8 kt uit het zuidwesten
Wijzigt naar
van 24 om 15 UTC tot 24 om 17 UTC
Wind 3 kt uit het oostzuidoosten

TAF: FMCH 231700Z 2318/2424 12003KT 9999 FEW020 BECMG 2405/2407 22008KT BECMG 2415/2417 11003KT

Waarnemingen en weersverwachtingen van meer dan 4000 vliegvelden (METAR en TAF).

De beschikbare stations zijn de gele en rode punten op de kaart.

Ga met uw muis naar het station om de naam te zien.

Klik dan om waarnemingen en weersverwachtingen te zien.

kaart wijzigen: klik op de groene knoppen met een zwart kruis om in te zoomen, op de groene knop met een streepje om uit te zoomen of op de groene pijlen voor aangrenzende kaarten.


METAR-TAF: